createdAt,value
2022-09-17T04:55:20.858Z,13.50
2022-09-17T05:00:42.483Z,18.67
2022-09-17T05:06:03.376Z,16.23
2022-09-17T05:11:24.240Z,8.55
2022-09-17T05:22:06.013Z,12.73
2022-09-17T05:32:47.708Z,13.77
2022-09-17T05:38:08.634Z,13.40
2022-09-17T05:43:29.252Z,14.68
2022-09-17T05:48:50.119Z,11.60
2022-09-17T05:54:10.993Z,19.85
2022-09-17T05:59:31.921Z,12.10
2022-09-17T06:10:13.277Z,15.55
2022-09-17T06:15:34.151Z,9.80
2022-09-17T06:26:20.488Z,12.65
2022-09-17T06:31:44.307Z,15.63
2022-09-17T06:37:05.957Z,12.60
2022-09-17T06:42:28.737Z,14.63
2022-09-17T06:47:50.115Z,15.88
2022-09-17T06:53:11.095Z,16.38
2022-09-17T07:03:53.343Z,11.02
2022-09-17T07:09:14.510Z,10.93
2022-09-17T07:14:35.214Z,14.25
2022-09-17T07:19:56.164Z,14.63
2022-09-17T07:25:17.102Z,9.68
2022-09-17T07:30:38.024Z,12.50
2022-09-17T07:36:01.200Z,17.33
2022-09-17T07:41:22.190Z,19.92
2022-09-17T07:52:06.402Z,10.48
2022-09-17T07:57:27.328Z,20.92
2022-09-17T08:02:54.386Z,22.20
2022-09-17T08:08:20.366Z,19.38
2022-09-17T08:13:42.582Z,21.60
2022-09-17T08:19:03.734Z,17.52
2022-09-17T08:24:24.790Z,20.30
2022-09-17T08:29:45.621Z,18.33
2022-09-17T08:35:07.462Z,22.77
2022-09-17T08:40:29.043Z,15.25
2022-09-17T08:45:58.489Z,14.82
2022-09-17T08:51:28.672Z,13.23
2022-09-17T08:57:12.128Z,13.80
2022-09-17T09:03:01.045Z,13.10
2022-09-17T09:08:37.170Z,15.20
2022-09-17T09:14:06.313Z,13.80
2022-09-17T09:19:54.478Z,16.10
2022-09-17T09:25:23.284Z,13.80
2022-09-17T09:31:00.626Z,9.00
2022-09-17T09:36:22.139Z,8.00
2022-09-17T09:42:11.448Z,14.73
2022-09-17T09:48:01.734Z,12.23
2022-09-17T09:53:47.520Z,14.27
2022-09-17T09:59:11.168Z,14.10
2022-09-17T10:04:34.884Z,17.08
2022-09-17T10:10:09.335Z,12.45
2022-09-17T10:15:30.154Z,14.15
2022-09-17T10:20:56.234Z,10.55
2022-09-17T10:26:33.541Z,13.10
2022-09-17T10:31:57.372Z,11.95
2022-09-17T10:37:47.855Z,13.13
2022-09-17T10:43:11.902Z,10.93
2022-09-17T10:48:37.906Z,13.02
2022-09-17T10:54:08.961Z,17.27
2022-09-17T10:59:42.105Z,12.38
2022-09-17T11:05:30.993Z,8.48
2022-09-17T11:11:04.192Z,10.80
2022-09-17T11:16:53.078Z,8.55
2022-09-17T11:22:27.477Z,14.23
2022-09-17T11:27:48.434Z,11.48
2022-09-17T11:33:32.692Z,10.85
2022-09-17T11:38:57.658Z,10.50
2022-09-17T11:44:31.355Z,8.95
2022-09-17T11:49:58.657Z,7.70
2022-09-17T11:55:26.690Z,23.85
2022-09-17T12:01:04.909Z,10.52
2022-09-17T12:06:40.149Z,28.08
2022-09-17T12:12:03.599Z,27.08
2022-09-17T12:18:14.326Z,19.10
2022-09-17T12:23:39.916Z,14.18
2022-09-17T12:29:30.337Z,11.85
2022-09-17T12:34:58.536Z,9.38
2022-09-17T12:40:35.238Z,8.80
2022-09-17T12:46:28.376Z,7.72
2022-09-17T12:51:59.799Z,5.53
2022-09-17T12:57:47.347Z,4.15
2022-09-17T13:03:55.975Z,5.38
2022-09-17T13:09:45.110Z,5.25
2022-09-17T13:15:33.632Z,3.83
2022-09-17T13:21:08.134Z,4.78
2022-09-17T13:26:39.576Z,6.05
2022-09-17T13:32:01.443Z,5.38
2022-09-17T13:37:22.777Z,4.68
2022-09-17T13:42:47.724Z,6.47
2022-09-17T13:48:11.634Z,5.00
2022-09-17T13:53:34.238Z,6.55
2022-09-17T13:58:54.870Z,3.80
2022-09-17T14:04:43.342Z,6.35
2022-09-17T14:10:16.112Z,3.65
2022-09-17T14:16:01.736Z,4.43
2022-09-17T14:21:27.519Z,4.20
2022-09-17T14:27:25.948Z,9.25
2022-09-17T14:32:55.753Z,5.90
2022-09-17T14:38:16.462Z,5.88
2022-09-17T14:43:55.009Z,3.38
2022-09-17T14:49:28.171Z,2.60
2022-09-17T14:54:49.308Z,4.32
2022-09-17T15:00:18.855Z,4.43
2022-09-17T15:05:42.319Z,7.55
2022-09-17T15:11:11.064Z,5.55
2022-09-17T15:16:33.413Z,2.25
2022-09-17T15:21:57.342Z,2.65
2022-09-17T15:27:25.340Z,3.47
2022-09-17T15:32:54.449Z,1.80
2022-09-17T15:38:27.635Z,2.63
2022-09-17T15:43:49.769Z,5.00
2022-09-17T15:49:34.841Z,4.05
2022-09-17T15:54:55.921Z,4.03
2022-09-17T16:00:17.795Z,2.58
2022-09-17T16:05:46.179Z,2.75
2022-09-17T16:11:07.616Z,2.42
2022-09-17T16:21:49.018Z,1.27
2022-09-17T16:27:18.118Z,2.42
2022-09-17T16:32:39.102Z,2.67
2022-09-17T16:43:20.304Z,1.83
2022-09-17T16:48:43.628Z,3.92
2022-09-17T16:54:04.813Z,1.92
2022-09-17T16:59:25.678Z,1.98
2022-09-17T17:04:47.432Z,1.42
2022-09-17T17:10:09.149Z,4.05
2022-09-17T17:15:30.376Z,3.22
2022-09-17T17:20:51.279Z,2.75
2022-09-17T17:31:32.970Z,2.90
2022-09-17T17:36:53.882Z,6.07
2022-09-17T17:42:14.859Z,4.47
2022-09-17T17:52:56.963Z,3.60
2022-09-17T17:58:17.734Z,4.25
2022-09-17T18:09:01.029Z,2.95
2022-09-17T18:14:21.734Z,3.85
2022-09-17T18:19:42.396Z,2.80
2022-09-17T18:30:24.175Z,4.93
2022-09-17T18:35:45.894Z,6.38
2022-09-17T18:41:10.902Z,6.90
2022-09-17T18:46:31.935Z,6.28
2022-09-17T18:51:52.907Z,4.70
2022-09-17T19:02:34.620Z,3.88
2022-09-17T19:07:55.438Z,3.95
2022-09-17T19:13:16.143Z,4.47
2022-09-17T19:18:37.512Z,1.70
2022-09-17T19:23:58.408Z,3.30
2022-09-17T19:29:19.446Z,5.32
2022-09-17T19:34:40.245Z,4.47
2022-09-17T19:40:01.369Z,4.47
2022-09-17T19:45:23.153Z,7.88
2022-09-17T19:50:51.821Z,4.38
2022-09-17T19:56:15.573Z,3.70
2022-09-17T20:01:36.159Z,3.92
2022-09-17T20:07:01.632Z,3.40
2022-09-17T20:12:22.738Z,4.75
2022-09-17T20:17:44.078Z,4.28
2022-09-17T20:23:05.113Z,2.00
2022-09-17T20:28:26.146Z,4.57
2022-09-17T20:33:47.077Z,2.33
2022-09-17T20:39:13.277Z,2.80
2022-09-17T20:44:37.511Z,4.07
2022-09-17T20:49:58.279Z,3.20
2022-09-17T20:55:19.124Z,2.75
2022-09-17T21:00:42.463Z,4.25
2022-09-17T21:06:03.304Z,6.13
2022-09-17T21:16:45.930Z,4.45
2022-09-17T21:22:06.690Z,6.03
2022-09-17T21:27:30.797Z,4.43
2022-09-17T21:32:53.400Z,7.13
2022-09-17T21:38:14.632Z,4.00
2022-09-17T21:43:36.569Z,3.40
